Flight Track Log - Related Links

Times and Time Zones

All times are in EST time to prevent confusion due to time zone crossing. See the UPS218 flight status page for this flight to view local times or setup timezone preferences in your user account.

Time Position Orientation Groundspeed Altitude Reporting Facility
EST Latitude Longitude Course Direction KTS MPH feet Rate Location/Type
Wed 11:05:49 AM 39.8552 -75.3038 255° West 182 209 2,300  Level FlightAware ADS-B (KWWD)
Wed 11:06:09 AM 39.8504 -75.3264 255° West 206 237 2,900 2,211 Climbing FlightAware ADS-B (KWWD)
Wed 11:06:27 AM 39.8458 -75.3483 255° West 225 259 3,700 2,800 Climbing FlightAware ADS-B (KWWD)
Wed 11:06:39 AM 39.8432 -75.3686 260° West 241 277 4,300 3,097 Climbing FlightAware ADS-B
Wed 11:06:58 AM 39.8448 -75.3965 274° West 251 289 5,300 2,903 Climbing FlightAware ADS-B
Wed 11:07:10 AM 39.8459 -75.4108 276° West 252 290 5,800 3,200 Climbing FlightAware ADS-B (KWWD)
Wed 11:07:28 AM 39.8479 -75.4383 275° West 256 295 6,900 3,538 Climbing FlightAware ADS-B
Wed 11:07:49 AM 39.8503 -75.4693 276° West 260 299 8,100 3,366 Climbing FlightAware ADS-B
Wed 11:08:09 AM 39.8531 -75.5019 276° West 265 305 9,200 2,432 Climbing FlightAware ADS-B
Wed 11:08:26 AM 39.8552 -75.5275 276° West 276 318 9,600 1,029 Climbing FlightAware ADS-B
Wed 11:08:44 AM 39.8578 -75.5597 276° West 309 356 9,800 300 Climbing FlightAware ADS-B
Wed 11:09:06 AM 39.8611 -75.6000 276° West 347 399 9,800 143 Level FlightAware ADS-B
Wed 11:09:26 AM 39.8649 -75.6462 276° West 367 422 9,900 2,316 Climbing FlightAware ADS-B
Wed 11:10:03 AM 39.8711 -75.7226 276° West 379 436 12,000 3,130 Climbing FlightAware ADS-B
Wed 11:10:12 AM 39.8733 -75.7507 276° West 382 440 12,300 2,233 Climbing FlightAware ADS-B (KWWD)
Wed 11:10:46 AM 39.8788 -75.8182 276° West 383 441 13,600 2,824 Climbing FlightAware ADS-B
Wed 11:11:20 AM 39.8831 -75.8727 276° West 390 449 15,500 3,680 Climbing FlightAware ADS-B
Wed 11:12:01 AM 39.8933 -76.0022 276° West 395 455 18,200 3,733 Climbing FlightAware ADS-B
Wed 11:12:50 AM 39.9026 -76.1219 276° West 394 453 21,100 3,357 Climbing FlightAware ADS-B (KWWD)
Wed 11:13:25 AM 39.9089 -76.2069 276° West 416 479 22,900 3,647 Climbing FlightAware ADS-B (KWWD)
Wed 11:13:41 AM 39.9099 -76.2253 274° West 419 482 24,200 2,906 Climbing FlightAware ADS-B
Wed 11:14:29 AM 39.9150 -76.3676 273° West 422 486 26,000 2,559 Climbing FlightAware ADS-B (KWWD)
Wed 11:14:49 AM 39.9170 -76.4183 273° West 421 484 27,100 2,947 Climbing FlightAware ADS-B (KWWD)
Wed 11:15:26 AM 39.9149 -76.5131 268° West 418 481 28,800 3,158 Climbing FlightAware ADS-B (KWWD)
Wed 11:16:05 AM 39.8997 -76.6018 257° West 411 473 31,100 2,171 Climbing FlightAware ADS-B
Wed 11:18:45 AM 39.8159 -76.9764 254° West 402 463 36,000 1,448 Climbing FlightAware ADS-B (KWWD)
Wed 11:19:28 AM 39.7929 -77.0757 253° West 402 463 36,000  Level FlightAware ADS-B (KWWD)
Wed 11:22:09 AM 39.7076 -77.4438 253° West 403 464 36,000  Level FlightAware ADS-B (KWWD)
Wed 11:22:47 AM 39.6867 -77.5327 253° West 403 464 36,000  Level FlightAware ADS-B (KWWD)
Wed 11:23:20 AM 39.6684 -77.6107 253° West 404 465 36,000  Level FlightAware ADS-B (KWWD)
Wed 11:25:45 AM 39.5891 -77.9445 253° West 404 465 36,000  Level FlightAware ADS-B (KWWD)
Wed 11:26:32 AM 39.5635 -78.0516 253° West 401 461 36,000  Level FlightAware ADS-B (KWWD)
Wed 11:27:11 AM 39.5420 -78.1409 253° West 402 463 36,000  Level FlightAware ADS-B (KWWD)
Wed 11:30:37 AM 39.4261 -78.6166 253° West 402 463 36,000  Level FlightAware ADS-B (KWWD)
Wed 11:31:08 AM 39.4086 -78.6879 252° West 402 463 36,000 475 Level FlightAware ADS-B (KWWD)
Wed 11:32:18 AM 39.3683 -78.8503 252° West 405 466 36,800 293 Climbing FlightAware ADS-B (KWWD)
Wed 11:37:58 AM 39.1763 -79.6111 252° West 395 455 38,000 187 Climbing FlightAware ADS-B (KWWD)
Wed 11:38:44 AM 39.1503 -79.7122 252° West 398 458 38,000  Level Indianapolis Center
Wed 11:39:46 AM 39.1194 -79.8308 252° West 399 459 38,000  Level Indianapolis Center
Wed 11:40:47 AM 39.0789 -79.9894 252° West 400 460 38,000  Level Indianapolis Center
Wed 11:41:49 AM 39.0450 -80.1200 252° West 399 459 38,000  Level Indianapolis Center
Wed 11:42:51 AM 39.0083 -80.2558 251° West 400 460 38,000  Level Indianapolis Center
Wed 11:43:53 AM 38.9731 -80.3917 252° West 401 461 38,000  Level Indianapolis Center
Wed 11:44:54 AM 38.9364 -80.5281 251° West 403 464 38,000  Level Indianapolis Center
Wed 11:45:56 AM 38.8928 -80.6914 251° West 403 464 38,000  Level Indianapolis Center
Wed 11:46:58 AM 38.8575 -80.8264 251° West 400 460 38,000  Level Indianapolis Center
Wed 11:48:00 AM 38.8211 -80.9628 251° West 403 464 38,000  Level Indianapolis Center
Wed 11:49:01 AM 38.7831 -81.0986 250° West 404 465 38,000  Level Indianapolis Center
Wed 11:50:03 AM 38.7461 -81.2353 251° West 405 466 38,000  Level Indianapolis Center
Wed 11:51:05 AM 38.7086 -81.3708 251° West 402 463 38,000  Level Indianapolis Center
Wed 11:52:07 AM 38.6661 -81.5253 251° West 405 466 38,000  Level Indianapolis Center
Wed 11:53:08 AM 38.6286 -81.6622 251° West 408 470 38,000 -244 Level Indianapolis Center
Wed 11:54:10 AM 38.5919 -81.7953 251° West 410 472 37,500 -919 Descending Indianapolis Center
Wed 11:55:12 AM 38.5533 -81.9322 250° West 409 471 36,100 -823 Descending Indianapolis Center
Wed 11:56:14 AM 38.5139 -82.0714 250° West 415 478 35,800 -823 Descending Indianapolis Center
Wed 11:57:16 AM 38.4736 -82.2119 250° West 419 482 34,400 -878 Descending Indianapolis Center
Wed 11:58:17 AM 38.4250 -82.3831 250° West 426 490 34,000 -195 Descending Indianapolis Center
Wed 11:59:19 AM 38.3853 -82.5242 250° West 426 490 34,000 -48 Level Indianapolis Center
Wed 12:00:21 PM 38.3442 -82.6661 250° West 426 490 33,900 -629 Descending Indianapolis Center
Wed 12:01:23 PM 38.3039 -82.8078 250° West 426 490 32,700 -919 Descending Indianapolis Center
Wed 12:02:25 PM 38.2608 -82.9497 249° West 430 495 32,000 -341 Descending Indianapolis Center
Wed 12:03:26 PM 38.2128 -83.1167 250° West 431 496 32,000  Level Indianapolis Center
Wed 12:04:28 PM 38.1700 -83.2592 249° West 431 496 32,000  Level Indianapolis Center
Wed 12:05:30 PM 38.1286 -83.4006 250° West 429 494 32,000 -484 Level Indianapolis Center
Wed 12:06:32 PM 38.0858 -83.5431 249° West 432 497 31,000 -1,463 Descending Indianapolis Center
Wed 12:07:33 PM 38.0428 -83.6856 249° West 432 497 29,000 -1,951 Descending Indianapolis Center
Wed 12:08:35 PM 38.0033 -83.8164 249° West 406 467 27,000 -1,984 Descending Indianapolis Center
Wed 12:09:37 PM 37.9581 -83.9669 249° West 394 453 24,900 -1,452 Descending Indianapolis Center
Wed 12:10:39 PM 37.9189 -84.0950 249° West 391 450 24,000 -439 Descending Indianapolis Center
Wed 12:11:40 PM 37.8797 -84.2261 249° West 397 457 24,000 -98 Level Indianapolis Center
Wed 12:12:42 PM 37.8397 -84.3581 249° West 401 461 23,800 -919 Descending Indianapolis Center
Wed 12:13:44 PM 37.7975 -84.4914 248° West 408 470 22,100 -2,226 Descending Indianapolis Center
Wed 12:14:46 PM 37.7583 -84.6181 249° West 392 451 19,200 -2,927 Descending Indianapolis Center
Wed 12:15:47 PM 37.7139 -84.7614 249° West 380 437 16,100 -3,220 Descending Indianapolis Center
Wed 12:16:49 PM 37.6783 -84.8792 249° West 363 418 12,600 -2,758 Descending Indianapolis Center
Wed 12:17:51 PM 37.6847 -84.9964 274° West 359 413 10,400 -1,258 Descending Indianapolis Center
Wed 12:18:53 PM 37.7531 -85.0931 312° West 368 423 10,000 -194 Descending Indianapolis Center
Wed 12:19:55 PM 37.8244 -85.1900 313° West 375 432 10,000  Level Indianapolis Center
Wed 12:20:56 PM 37.8931 -85.2808 314° West 352 405 10,000 -341 Level Indianapolis Center
Wed 12:21:58 PM 37.9447 -85.3564 311° West 290 334 9,300 -871 Descending Indianapolis Center
Wed 12:23:00 PM 37.9953 -85.4269 312° West 275 316 8,200 -1,113 Descending Indianapolis Center
Wed 12:24:02 PM 38.0453 -85.4956 313° West 268 308 7,000 -774 Descending Indianapolis Center
Wed 12:25:04 PM 38.1081 -85.5817 313° West 273 314 6,600 -439 Descending Indianapolis Center
Wed 12:26:05 PM 38.1881 -85.6175 341° North 299 344 6,100 -634 Descending Indianapolis Center
Wed 12:27:07 PM 38.2658 -85.6486 343° North 294 338 5,300 -871 Descending Indianapolis Center
Wed 12:28:09 PM 38.3442 -85.6761 345° North 292 336 4,300 -871 Descending Indianapolis Center
Wed 12:29:11 PM 38.4028 -85.7275 326° Northwest 284 327 3,500 -634 Descending Indianapolis Center
Wed 12:30:12 PM 38.3858 -85.7814 248° West 230 265 3,000 -377 Descending Indianapolis Center
Wed 12:32:54 PM 38.2667 -85.7500 168° South 136 157 2,100 -333 Descending Louisville TRACON

Login

Don't have an account? Register now (free) for customized features, flight alerts, and more!